الصفحة الرئيسية
METAR-TAF:

METAR-TAF

مطار :

Kanoya, اليابان

دائرة عرض: 31-22N, خط طول: 130-50E, ارتفاع: 65 متر

مراقبة الطقس الحالي

تاريخ ووقت الإصدار 57 دقيقة قبل الساعة 02:20UTC
ريح 5 عقدة من الشمال/الشمال الشرقي, الاتجاه يتراوح بين الشمال و الشرق/الشمال الشرقي
درجة الحرارة 22°درجة مئوية
الرطوبة 88%
ضغط 1009 hPa
الرؤية: 5000 متر
غيوم قليلة على ارتفاع 300 قدم
غيوم مفككة على ارتفاع 1000 قدم
ملبد بالغيوم على ارتفاع 2000 قدم
غيوم قليلة على ارتفاع 2000 قدم, مزنة ركامية.
زخات من الأمطار الخفيفة, غشاء

METAR: RJFY 170220Z 03005KT 350V070 5000 -SHRA BR FEW003 BKN010 OVC020 FEW020CB 22/20 Q1009 RMK 2ST003 5CU010 8CU020 1CB020 A2980 CB 15KM NE MOV NE VIS VRB

زمن: 12:17 (03:17 UTC)


TAF: مفقودة

أرصاد الطقس والتوقعات من أكثر من 4000 مطار (تقارير الطقس للمطار METAR والتنبؤ بالطقس بالمطارTAF).

المحطات المتاحة هي النقط الصفراء والحمراء على الخريطة.

حرك المؤشر فوق النقطة لمعرفة اسم المحطة.

ثم انقر لمعرفة أرصاد وتوقعات الطقس.

لتغيير الخارطة: اضغط على الأزرار الخضراء مع رمز الصليب الأسود للتكبير. على الزر الأخضر مع شرطة للتصغير، أو على الأسهم الخضراء للخرائط المجاورة.


METAR-TAF: